Time;durP1;ratioP1;P1;durP2;ratioP2;P2;SDS_P1;SDS_P2;PMS_P1;PMS_P2;Temp;Humidity;BMP_temperature;BMP_pressure;BME280_temperature;BME280_humidity;BME280_pressure;Samples;Min_cycle;Max_cycle;Signal;HPM_P1;HPM_P2
2023/11/11 00:05:59;;;;;;;;;;;6.70;99.90;;;;;;6657566;88;20659;-77
2023/11/11 00:16:00;;;;;;;;;;;6.70;99.90;;;;;;6625445;88;20225;-78
2023/11/11 00:26:01;;;;;;;;;;;6.60;99.90;;;;;;6657982;88;20072;-78
2023/11/11 00:36:01;;;;;;;;;;;6.50;99.90;;;;;;6651530;88;20511;-77
2023/11/11 00:46:02;;;;;;;;;;;6.50;99.90;;;;;;6627262;88;20087;-77
2023/11/11 00:56:02;;;;;;;;;;;6.50;99.90;;;;;;6630039;88;20067;-77
2023/11/11 01:06:03;;;;;;;;;;;6.40;99.90;;;;;;6651317;88;20093;-77
2023/11/11 01:16:03;;;;;;;;;;;6.40;99.90;;;;;;6670457;88;20063;-77
2023/11/11 01:26:04;;;;;;;;;;;6.50;99.90;;;;;;6648478;88;20148;-77
2023/11/11 01:36:05;;;;;;;;;;;6.50;99.90;;;;;;6633812;88;20107;-77
2023/11/11 01:46:06;;;;;;;;;;;6.60;99.90;;;;;;6618907;88;20750;-77
2023/11/11 01:56:08;;;;;;;;;;;6.70;99.90;;;;;;6633840;88;20165;-76
2023/11/11 02:06:09;;;;;;;;;;;6.90;99.90;;;;;;6650937;88;20064;-77
2023/11/11 02:16:10;;;;;;;;;;;7.00;99.90;;;;;;6685237;88;20699;-76
2023/11/11 02:26:11;;;;;;;;;;;7.00;99.90;;;;;;6679456;88;20122;-78
2023/11/11 02:36:11;;;;;;;;;;;6.90;99.90;;;;;;6686672;88;20060;-77
2023/11/11 02:46:12;;;;;;;;;;;6.90;99.90;;;;;;6683926;88;20566;-80
2023/11/11 02:56:13;;;;;;;;;;;6.80;99.90;;;;;;6687269;88;20151;-76
2023/11/11 03:16:17;;;;;;;;;;;6.80;99.90;;;;;;6643910;89;20053;-78
2023/11/11 03:26:19;;;;;;;;;;;6.80;99.90;;;;;;6641452;89;20370;-79
2023/11/11 03:36:20;;;;;;;;;;;6.70;99.90;;;;;;6642635;88;20144;-78
2023/11/11 03:46:20;;;;;;;;;;;6.80;99.90;;;;;;6647419;88;20135;-79
2023/11/11 03:56:23;;;;;;;;;;;6.90;99.90;;;;;;6633538;88;20097;-79
2023/11/11 04:06:23;;;;;;;;;;;6.90;99.90;;;;;;6633902;88;20079;-79
2023/11/11 04:16:26;;;;;;;;;;;7.00;99.90;;;;;;6648750;88;20547;-82
2023/11/11 04:26:26;;;;;;;;;;;7.00;99.90;;;;;;6659779;88;20154;-79
2023/11/11 04:36:27;;;;;;;;;;;6.90;99.90;;;;;;6640814;88;20066;-79
2023/11/11 04:46:29;;;;;;;;;;;6.90;99.90;;;;;;6666742;88;20120;-79
2023/11/11 04:56:30;;;;;;;;;;;6.70;99.90;;;;;;6638661;88;20066;-79
2023/11/11 05:06:31;;;;;;;;;;;6.80;99.90;;;;;;6630669;89;20063;-78
2023/11/11 05:16:40;;;;;;;;;;;6.80;99.90;;;;;;6640798;89;20605;-78
2023/11/11 05:26:41;;;;;;;;;;;6.80;99.90;;;;;;6636322;89;20062;-79
2023/11/11 05:36:42;;;;;;;;;;;6.80;99.90;;;;;;6635777;88;20214;-79
2023/11/11 05:46:43;;;;;;;;;;;6.80;99.90;;;;;;6648329;89;20061;-80
2023/11/11 05:56:43;;;;;;;;;;;6.70;99.90;;;;;;6633357;89;20083;-78
2023/11/11 06:06:44;;;;;;;;;;;6.50;99.90;;;;;;6634624;89;20058;-80
2023/11/11 06:16:44;;;;;;;;;;;6.30;99.90;;;;;;6636176;89;20141;-80
2023/11/11 06:26:45;;;;;;;;;;;6.30;99.90;;;;;;6635755;89;20057;-80
2023/11/11 06:36:45;;;;;;;;;;;6.40;99.90;;;;;;6639347;89;20088;-80
2023/11/11 06:46:46;;;;;;;;;;;6.40;99.90;;;;;;6628983;89;20077;-81
2023/11/11 06:56:47;;;;;;;;;;;6.40;99.90;;;;;;6630435;89;20090;-81
2023/11/11 07:06:47;;;;;;;;;;;6.40;99.90;;;;;;6636536;89;20085;-80
2023/11/11 07:16:47;;;;;;;;;;;6.40;99.90;;;;;;6626597;89;20253;-79
2023/11/11 07:26:49;;;;;;;;;;;6.20;99.90;;;;;;6641541;89;20177;-81
2023/11/11 07:36:50;;;;;;;;;;;6.20;99.90;;;;;;6640241;88;20055;-80
2023/11/11 07:46:50;;;;;;;;;;;6.20;99.90;;;;;;6641372;88;20549;-78
2023/11/11 07:56:51;;;;;;;;;;;6.30;99.90;;;;;;6641020;89;20088;-78
2023/11/11 08:06:52;;;;;;;;;;;6.50;99.90;;;;;;6627536;88;20291;-79
2023/11/11 08:16:52;;;;;;;;;;;6.50;99.90;;;;;;6630222;89;20113;-79
2023/11/11 08:26:53;;;;;;;;;;;6.80;99.90;;;;;;6634238;89;20042;-78
2023/11/11 08:36:54;;;;;;;;;;;7.40;99.90;;;;;;6638841;88;20084;-78
2023/11/11 08:46:54;;;;;;;;;;;8.10;99.90;;;;;;6640967;88;20065;-78
2023/11/11 08:56:55;;;;;;;;;;;8.70;99.90;;;;;;6636040;89;20678;-78
2023/11/11 09:06:56;;;;;;;;;;;9.40;99.90;;;;;;6636609;79;20212;-76
2023/11/11 09:16:56;;;;;;;;;;;9.70;99.90;;;;;;6625886;88;20113;-76
2023/11/11 09:26:57;;;;;;;;;;;10.10;99.90;;;;;;6618491;88;20054;-77
2023/11/11 09:36:58;;;;;;;;;;;10.20;99.90;;;;;;6620111;89;20177;-77
2023/11/11 09:46:59;;;;;;;;;;;10.00;99.90;;;;;;6613315;88;20467;-77
2023/11/11 09:57:00;;;;;;;;;;;9.40;99.90;;;;;;6613763;89;20117;-77
2023/11/11 10:07:00;;;;;;;;;;;9.50;99.90;;;;;;6612404;89;20067;-78
2023/11/11 10:17:03;;;;;;;;;;;9.50;99.90;;;;;;6612727;89;20664;-77
2023/11/11 10:27:04;;;;;;;;;;;9.60;99.90;;;;;;6612863;89;20054;-77
2023/11/11 10:37:05;;;;;;;;;;;9.90;99.90;;;;;;6613401;89;20083;-77
2023/11/11 10:47:05;;;;;;;;;;;10.40;99.90;;;;;;6611570;89;20591;-77
2023/11/11 10:57:06;;;;;;;;;;;10.50;99.90;;;;;;6614741;89;20680;-76
2023/11/11 11:07:09;;;;;;;;;;;10.40;99.90;;;;;;6613256;89;20084;-77
2023/11/11 11:17:09;;;;;;;;;;;10.10;99.90;;;;;;6622988;88;20112;-77
2023/11/11 11:27:11;;;;;;;;;;;10.20;99.90;;;;;;6618407;88;20174;-77
2023/11/11 11:37:12;;;;;;;;;;;10.90;99.90;;;;;;6615763;89;20067;-77
2023/11/11 11:47:13;;;;;;;;;;;11.50;99.90;;;;;;6612579;89;20074;-77
2023/11/11 11:57:13;;;;;;;;;;;11.20;99.90;;;;;;6618984;89;20111;-77
2023/11/11 12:07:14;;;;;;;;;;;10.90;99.90;;;;;;6618270;89;20125;-79
2023/11/11 12:17:16;;;;;;;;;;;10.70;99.90;;;;;;6617992;88;20197;-78
2023/11/11 12:27:16;;;;;;;;;;;10.30;99.90;;;;;;6618077;88;20080;-79
2023/11/11 12:37:17;;;;;;;;;;;10.20;99.90;;;;;;6622174;89;20133;-80
2023/11/11 12:47:18;;;;;;;;;;;10.20;99.90;;;;;;6618083;88;20104;-77
2023/11/11 12:57:28;;;;;;;;;;;10.40;99.90;;;;;;6616659;88;20117;-76
2023/11/11 13:07:29;;;;;;;;;;;9.90;99.90;;;;;;6612535;89;20079;-76
2023/11/11 13:17:30;;;;;;;;;;;8.70;99.90;;;;;;6612624;88;20097;-77
2023/11/11 13:27:32;;;;;;;;;;;8.10;99.90;;;;;;6613871;89;20143;-78
2023/11/11 13:37:33;;;;;;;;;;;8.40;99.90;;;;;;6614033;89;20612;-77
2023/11/11 13:47:34;;;;;;;;;;;9.50;99.90;;;;;;6614082;89;20074;-78
2023/11/11 13:57:34;;;;;;;;;;;9.30;99.90;;;;;;6615149;89;20070;-78
2023/11/11 14:07:35;;;;;;;;;;;8.20;99.90;;;;;;6615157;89;20066;-79
2023/11/11 14:17:37;;;;;;;;;;;7.30;99.90;;;;;;6616005;89;20148;-77
2023/11/11 14:27:43;;;;;;;;;;;7.10;99.90;;;;;;6631014;88;20093;-77
2023/11/11 14:37:44;;;;;;;;;;;8.00;99.90;;;;;;6614121;89;20055;-76
2023/11/11 14:47:45;;;;;;;;;;;8.30;99.90;;;;;;6608140;89;20084;-77
2023/11/11 14:57:46;;;;;;;;;;;8.20;99.90;;;;;;6613634;89;20083;-76
2023/11/11 15:17:51;;;;;;;;;;;7.70;99.90;;;;;;6616873;89;20561;-79
2023/11/11 15:27:51;;;;;;;;;;;7.70;99.90;;;;;;6629767;89;20076;-81
2023/11/11 15:37:52;;;;;;;;;;;7.70;99.90;;;;;;6619446;90;20484;-80
2023/11/11 15:47:54;;;;;;;;;;;7.50;99.90;;;;;;6622530;89;20054;-81
2023/11/11 15:57:54;;;;;;;;;;;7.50;99.90;;;;;;6618687;90;20091;-80
2023/11/11 16:07:55;;;;;;;;;;;7.50;99.90;;;;;;6624451;89;20120;-80
2023/11/11 16:17:55;;;;;;;;;;;7.50;99.90;;;;;;6641964;89;20075;-80
2023/11/11 16:27:57;;;;;;;;;;;7.60;99.90;;;;;;6644581;88;20092;-81
2023/11/11 16:48:09;;;;;;;;;;;7.30;99.90;;;;;;6641199;88;20095;-81
2023/11/11 16:58:10;;;;;;;;;;;7.30;99.90;;;;;;6608668;90;20076;-80
2023/11/11 17:08:11;;;;;;;;;;;7.20;99.90;;;;;;6611075;89;20055;-78
2023/11/11 17:18:12;;;;;;;;;;;7.00;99.90;;;;;;6628662;89;20099;-80
2023/11/11 17:28:12;;;;;;;;;;;6.90;99.90;;;;;;6618871;89;20058;-80
2023/11/11 17:38:13;;;;;;;;;;;6.80;99.90;;;;;;6676731;89;20174;-83
2023/11/11 17:48:13;;;;;;;;;;;6.70;99.90;;;;;;6636167;89;20609;-80
2023/11/11 17:58:14;;;;;;;;;;;6.60;99.90;;;;;;6624827;89;20056;-81
2023/11/11 18:08:16;;;;;;;;;;;6.60;99.90;;;;;;6598120;89;20163;-82
2023/11/11 18:18:17;;;;;;;;;;;6.60;99.90;;;;;;6625617;89;20147;-82
2023/11/11 18:28:17;;;;;;;;;;;6.60;99.90;;;;;;6629652;89;20109;-82
2023/11/11 18:38:18;;;;;;;;;;;6.70;99.90;;;;;;6628668;89;20089;-82
2023/11/11 18:48:18;;;;;;;;;;;6.70;99.90;;;;;;6628903;89;20178;-81
2023/11/11 18:58:20;;;;;;;;;;;7.00;99.90;;;;;;6629074;89;20136;-82
2023/11/11 19:08:21;;;;;;;;;;;7.00;99.90;;;;;;6629242;89;20057;-80
2023/11/11 19:18:21;;;;;;;;;;;7.00;99.90;;;;;;6631085;89;20048;-81
2023/11/11 19:28:22;;;;;;;;;;;7.00;99.90;;;;;;6630952;89;20153;-81
2023/11/11 19:38:22;;;;;;;;;;;6.80;99.90;;;;;;6631160;89;20053;-82
2023/11/11 19:48:23;;;;;;;;;;;6.70;99.90;;;;;;6698295;88;20041;-83
2023/11/11 19:58:23;;;;;;;;;;;6.90;99.90;;;;;;6635377;88;20075;-82
2023/11/11 20:08:24;;;;;;;;;;;6.90;99.90;;;;;;6630769;89;20122;-80
2023/11/11 20:18:24;;;;;;;;;;;7.00;99.90;;;;;;6646926;89;20134;-88
2023/11/11 20:28:25;;;;;;;;;;;6.80;99.90;;;;;;6715105;88;20768;-86
2023/11/11 20:38:25;;;;;;;;;;;6.70;99.90;;;;;;6715705;88;20738;-85
2023/11/11 20:48:26;;;;;;;;;;;6.60;99.90;;;;;;6716050;88;20040;-86
2023/11/11 20:58:26;;;;;;;;;;;6.50;99.90;;;;;;6661975;88;20113;-84
2023/11/11 21:08:27;;;;;;;;;;;6.40;99.90;;;;;;6714928;88;20086;-83
2023/11/11 21:18:28;;;;;;;;;;;6.20;99.90;;;;;;6714392;88;20091;-82
2023/11/11 21:28:28;;;;;;;;;;;6.00;99.90;;;;;;6714250;88;20147;-81
2023/11/11 21:38:29;;;;;;;;;;;6.00;99.90;;;;;;6660975;88;20046;-82
2023/11/11 21:48:29;;;;;;;;;;;6.00;99.90;;;;;;6646525;89;20128;-82
2023/11/11 21:58:30;;;;;;;;;;;6.10;99.90;;;;;;6646473;89;20106;-83
2023/11/11 22:08:31;;;;;;;;;;;6.00;99.90;;;;;;6646408;89;20118;-82
2023/11/11 22:18:32;;;;;;;;;;;6.00;99.90;;;;;;6645218;89;20125;-83
2023/11/11 22:28:32;;;;;;;;;;;6.00;99.90;;;;;;6646267;89;20055;-83
2023/11/11 22:38:33;;;;;;;;;;;6.20;99.90;;;;;;6645988;89;20082;-82
2023/11/11 22:48:34;;;;;;;;;;;6.30;99.90;;;;;;6646040;89;20118;-82
2023/11/11 22:58:35;;;;;;;;;;;6.30;99.90;;;;;;6645773;89;20737;-85
2023/11/11 23:08:35;;;;;;;;;;;6.40;99.90;;;;;;6629135;89;20019;-83
2023/11/11 23:18:37;;;;;;;;;;;6.30;99.90;;;;;;6628917;89;20054;-83
2023/11/11 23:28:38;;;;;;;;;;;6.30;99.90;;;;;;6631254;89;20192;-81
2023/11/11 23:38:38;;;;;;;;;;;6.30;99.90;;;;;;6631827;89;20071;-83
2023/11/11 23:48:40;;;;;;;;;;;6.40;99.90;;;;;;6631569;89;20061;-82
2023/11/11 23:58:40;;;;;;;;;;;6.20;99.90;;;;;;6629234;89;20039;-83
